Time;durP1;ratioP1;P1;durP2;ratioP2;P2;SDS_P1;SDS_P2;PMS_P1;PMS_P2;Temp;Humidity;BMP_temperature;BMP_pressure;BME280_temperature;BME280_humidity;BME280_pressure;Samples;Min_cycle;Max_cycle;Signal;HPM_P1;HPM_P2
2023/01/23 00:00:00;;;;;;;21.10;10.53;;;;;;;9.91;52.04;103693.22;5038034;28;20473;-73
2023/01/23 00:02:26;;;;;;;18.13;10.13;;;;;;;10.35;50.51;103683.56;5032336;28;20539;-73
2023/01/23 00:04:51;;;;;;;22.17;9.70;;;;;;;10.12;50.86;103676.56;5048559;28;20017;-74
2023/01/23 00:07:17;;;;;;;24.20;11.63;;;;;;;9.94;51.35;103688.09;5050665;28;20057;-73
2023/01/23 00:09:42;;;;;;;24.40;11.67;;;;;;;9.99;51.62;103686.56;5075563;28;20401;-73
2023/01/23 00:12:08;;;;;;;20.80;10.20;;;;;;;9.93;51.63;103685.44;5031771;28;20499;-74
2023/01/23 00:14:33;;;;;;;18.80;10.37;;;;;;;9.30;52.32;103676.00;5031286;28;20065;-74
2023/01/23 00:16:58;;;;;;;21.50;10.40;;;;;;;8.19;56.29;103674.75;5036992;28;20016;-74
2023/01/23 00:19:24;;;;;;;19.43;10.17;;;;;;;9.44;53.01;103674.00;5051754;28;20401;-74
2023/01/23 00:21:49;;;;;;;26.00;10.27;;;;;;;9.04;55.18;103669.72;5040265;28;20036;-74
2023/01/23 00:24:15;;;;;;;22.43;10.60;;;;;;;9.21;54.43;103676.53;5052933;28;20029;-74
2023/01/23 00:26:40;;;;;;;24.07;9.97;;;;;;;8.76;55.96;103671.19;5052627;28;20025;-74
2023/01/23 00:29:06;;;;;;;19.93;10.80;;;;;;;8.94;54.51;103676.28;5051254;28;20037;-74
2023/01/23 00:31:36;;;;;;;21.17;10.90;;;;;;;9.21;54.42;103681.75;5084186;28;20144;-73
2023/01/23 00:34:05;;;;;;;25.60;11.80;;;;;;;9.81;52.50;103671.09;5053297;28;20481;-73
2023/01/23 00:36:34;;;;;;;21.87;10.03;;;;;;;9.89;52.05;103667.88;5049004;28;20032;-73
2023/01/23 00:39:00;;;;;;;20.40;11.07;;;;;;;9.81;51.44;103670.22;5085410;28;20017;-74
2023/01/23 00:41:26;;;;;;;23.87;10.73;;;;;;;9.70;51.63;103676.72;5045739;28;20382;-74
2023/01/23 00:43:51;;;;;;;21.57;10.37;;;;;;;9.29;53.64;103672.53;5051851;28;20032;-74
2023/01/23 00:46:18;;;;;;;18.13;10.47;;;;;;;9.83;52.15;103663.31;5050877;28;20488;-74
2023/01/23 00:48:44;;;;;;;20.17;10.50;;;;;;;9.67;51.77;103662.72;5044367;28;20025;-73
2023/01/23 00:51:09;;;;;;;25.10;10.97;;;;;;;9.88;52.63;103656.53;5046289;28;20388;-73
2023/01/23 00:53:35;;;;;;;21.47;10.23;;;;;;;9.80;51.46;103647.53;5084290;28;20029;-73
2023/01/23 00:56:00;;;;;;;17.20;10.63;;;;;;;8.95;53.31;103642.44;5051575;28;20174;-73
2023/01/23 00:58:25;;;;;;;28.67;11.53;;;;;;;9.54;53.30;103644.78;5049219;28;20035;-73
2023/01/23 01:00:51;;;;;;;20.40;10.93;;;;;;;9.15;53.36;103650.22;5043116;28;20029;-73
2023/01/23 01:03:19;;;;;;;40.13;10.93;;;;;;;9.21;53.43;103645.22;5046164;28;20037;-72
2023/01/23 01:05:44;;;;;;;20.40;10.73;;;;;;;9.42;53.98;103644.31;5033117;28;20087;-73
2023/01/23 01:08:10;;;;;;;21.00;10.80;;;;;;;9.11;55.07;103648.31;5031120;28;20481;-73
2023/01/23 01:10:35;;;;;;;19.77;9.90;;;;;;;9.45;53.73;103660.06;5039926;28;20298;-73
2023/01/23 01:13:02;;;;;;;25.63;11.97;;;;;;;9.23;54.35;103659.25;5046654;28;20040;-73
2023/01/23 01:15:28;;;;;;;23.33;10.73;;;;;;;8.84;54.27;103659.34;5052442;28;20056;-73
2023/01/23 01:17:53;;;;;;;24.67;11.50;;;;;;;9.27;54.49;103655.94;5051128;28;20050;-73
2023/01/23 01:20:24;;;;;;;21.37;10.20;;;;;;;9.43;53.91;103653.91;5050106;28;20528;-73
2023/01/23 01:22:50;;;;;;;23.97;10.80;;;;;;;9.03;54.78;103649.69;5052610;28;20413;-73
2023/01/23 01:25:16;;;;;;;20.77;10.80;;;;;;;8.61;57.25;103651.47;5049372;28;20428;-73
2023/01/23 01:27:42;;;;;;;19.37;10.50;;;;;;;9.15;55.24;103656.31;5051726;28;20047;-72
2023/01/23 01:30:08;;;;;;;25.03;11.37;;;;;;;9.11;54.61;103653.53;5052673;28;20032;-72
2023/01/23 01:32:38;;;;;;;22.27;11.07;;;;;;;9.46;54.49;103657.53;5038943;28;20041;-72
2023/01/23 01:35:05;;;;;;;24.30;10.70;;;;;;;9.56;52.93;103647.44;5043072;28;20032;-72
2023/01/23 01:37:32;;;;;;;21.73;11.00;;;;;;;9.63;52.39;103655.59;5083313;28;20020;-73
2023/01/23 01:39:58;;;;;;;21.33;11.20;;;;;;;9.56;54.06;103656.19;5049944;28;20464;-72
2023/01/23 01:42:27;;;;;;;21.60;10.57;;;;;;;9.47;53.54;103658.44;5051030;28;20036;-72
2023/01/23 01:44:58;;;;;;;21.50;10.70;;;;;;;9.32;54.68;103662.19;5043114;28;20033;-72
2023/01/23 01:47:24;;;;;;;21.10;11.53;;;;;;;9.28;53.45;103655.06;5029404;28;20473;-72
2023/01/23 01:49:54;;;;;;;21.97;10.93;;;;;;;9.57;53.52;103671.00;5031163;28;20032;-72
2023/01/23 01:52:22;;;;;;;26.93;11.10;;;;;;;9.87;52.70;103669.53;5046542;28;20442;-72
2023/01/23 01:54:55;;;;;;;24.20;10.43;;;;;;;8.94;55.39;103668.44;5049125;28;20037;-72
2023/01/23 01:57:31;;;;;;;27.90;11.23;;;;;;;8.82;56.04;103661.91;5039005;28;20025;-72
2023/01/23 02:00:06;;;;;;;29.77;12.60;;;;;;;8.99;56.28;103662.59;5050787;28;20044;-73
2023/01/23 02:02:37;;;;;;;23.37;11.57;;;;;;;9.45;53.76;103673.13;5050186;28;20477;-73
2023/01/23 02:05:09;;;;;;;24.43;11.20;;;;;;;9.38;53.90;103668.50;5045207;28;20039;-72
2023/01/23 02:07:40;;;;;;;24.33;10.77;;;;;;;8.91;55.95;103665.72;5048831;28;20045;-72
2023/01/23 02:10:07;;;;;;;26.90;10.80;;;;;;;9.10;54.28;103672.59;5083082;28;20052;-72
2023/01/23 02:12:34;;;;;;;24.00;11.57;;;;;;;9.22;55.40;103675.72;5051153;28;20083;-72
2023/01/23 02:15:04;;;;;;;25.60;12.07;;;;;;;8.97;56.19;103674.69;5049450;28;20032;-72
2023/01/23 02:17:30;;;;;;;27.37;11.83;;;;;;;9.23;55.46;103680.13;5035204;28;20497;-72
2023/01/23 02:20:12;;;;;;;22.57;11.47;;;;;;;9.89;52.93;103687.06;5032986;28;20064;-72
2023/01/23 02:22:52;;;;;;;29.03;11.27;;;;;;;9.62;53.93;103679.91;5033094;28;20511;-73
2023/01/23 02:25:28;;;;;;;23.23;11.53;;;;;;;9.79;53.57;103687.53;5050342;28;20064;-72
2023/01/23 02:27:53;;;;;;;32.27;12.43;;;;;;;10.05;52.80;103691.13;5050775;28;20028;-72
2023/01/23 02:30:19;;;;;;;31.80;12.67;;;;;;;9.56;52.99;103682.31;5050698;28;20030;-72
2023/01/23 02:32:45;;;;;;;23.93;12.13;;;;;;;8.98;54.08;103681.72;5049577;28;20055;-73
2023/01/23 02:35:20;;;;;;;29.40;12.53;;;;;;;9.21;54.58;103676.53;5048785;28;20033;-72
2023/01/23 02:37:47;;;;;;;27.10;11.83;;;;;;;9.76;52.63;103687.41;5049373;28;20428;-72
2023/01/23 02:40:14;;;;;;;28.47;12.30;;;;;;;9.12;54.98;103683.97;5035531;28;20057;-73
2023/01/23 02:42:43;;;;;;;27.53;11.10;;;;;;;8.97;55.70;103681.63;5062889;28;20035;-73
2023/01/23 02:45:09;;;;;;;26.37;12.50;;;;;;;9.22;54.78;103677.41;5031209;28;20036;-72
2023/01/23 02:47:34;;;;;;;26.37;10.67;;;;;;;9.21;55.14;103681.75;5029221;28;20045;-72
2023/01/23 02:50:00;;;;;;;20.77;11.00;;;;;;;8.89;55.98;103673.50;5078890;28;20082;-73
2023/01/23 02:52:25;;;;;;;23.43;10.70;;;;;;;9.33;55.81;103676.16;5061631;28;20068;-72
2023/01/23 02:54:51;;;;;;;25.83;12.13;;;;;;;9.54;54.05;103686.56;5029583;28;20013;-72
2023/01/23 02:57:16;;;;;;;23.50;12.33;;;;;;;9.61;53.50;103680.75;5028615;28;20536;-72
2023/01/23 03:02:26;;;;;;;23.90;11.73;;;;;;;9.31;54.36;103683.03;5050889;28;20743;-72
2023/01/23 03:04:52;;;;;;;26.20;12.77;;;;;;;9.64;54.41;103682.59;5048785;28;20146;-72
2023/01/23 03:07:17;;;;;;;26.80;12.47;;;;;;;9.96;52.67;103680.31;5048177;28;20132;-73
2023/01/23 03:09:46;;;;;;;31.10;12.00;;;;;;;9.61;53.80;103683.34;5080448;28;20032;-72
2023/01/23 03:12:13;;;;;;;29.03;11.30;;;;;;;8.76;56.92;103682.50;5029976;28;20150;-73
2023/01/23 03:14:38;;;;;;;19.57;10.90;;;;;;;9.14;56.60;103691.06;5030509;28;20033;-73
2023/01/23 03:17:04;;;;;;;27.30;11.77;;;;;;;8.85;55.55;103691.53;5041120;28;20025;-72
2023/01/23 03:19:30;;;;;;;27.53;11.57;;;;;;;9.00;55.99;103693.09;5047810;28;20488;-72
2023/01/23 03:21:55;;;;;;;34.23;12.40;;;;;;;9.42;54.63;103706.97;5048972;28;20539;-72
2023/01/23 03:24:21;;;;;;;21.63;11.63;;;;;;;8.82;55.26;103702.75;5047655;28;20393;-72
2023/01/23 03:26:48;;;;;;;28.17;12.03;;;;;;;8.69;56.80;103710.88;5050778;28;20404;-72
2023/01/23 03:32:09;;;;;;;21.87;11.80;;;;;;;8.61;56.93;103714.03;5029984;28;20036;-72
2023/01/23 03:34:35;;;;;;;22.67;11.63;;;;;;;9.75;54.31;103704.78;5050359;28;20032;-72
2023/01/23 03:37:02;;;;;;;28.83;12.60;;;;;;;9.59;54.90;103716.38;5041777;28;20018;-73
2023/01/23 03:42:12;;;;;;;24.60;12.43;;;;;;;9.01;55.16;103709.63;5029931;28;20060;-72
2023/01/23 03:44:37;;;;;;;25.70;12.40;;;;;;;9.15;55.30;103710.22;5030120;28;20056;-72
2023/01/23 03:47:03;;;;;;;27.97;12.67;;;;;;;9.29;56.28;103714.28;5028988;28;20021;-72
2023/01/23 03:49:29;;;;;;;26.57;11.93;;;;;;;9.89;53.88;103700.13;5047168;28;20481;-72
2023/01/23 03:51:55;;;;;;;26.23;11.60;;;;;;;8.84;57.41;103711.53;5048827;28;20025;-72
2023/01/23 03:54:20;;;;;;;26.53;12.70;;;;;;;9.27;56.28;103712.44;5044984;28;20495;-72
2023/01/23 03:56:45;;;;;;;30.13;12.90;;;;;;;9.18;56.22;103710.34;5032608;28;20059;-72
2023/01/23 03:59:11;;;;;;;30.17;12.30;;;;;;;8.74;56.83;103704.13;5029788;28;20095;-72
2023/01/23 04:01:37;;;;;;;24.00;11.70;;;;;;;7.71;60.88;103715.94;5028667;28;20049;-72
2023/01/23 04:04:03;;;;;;;23.60;13.13;;;;;;;8.96;58.40;103699.00;5028874;28;20029;-72
2023/01/23 04:06:29;;;;;;;26.23;12.97;;;;;;;8.02;62.01;103709.56;5028519;28;20538;-72
2023/01/23 04:08:56;;;;;;;27.27;13.00;;;;;;;9.05;58.24;103710.66;5030878;28;20021;-72
2023/01/23 04:11:22;;;;;;;34.63;12.67;;;;;;;9.42;56.08;103712.19;5047803;28;20024;-72
2023/01/23 04:13:48;;;;;;;29.87;14.20;;;;;;;8.87;57.82;103705.56;5051719;28;20024;-72
2023/01/23 04:16:13;;;;;;;31.40;12.53;;;;;;;9.06;57.34;103704.63;5051986;28;20420;-73
2023/01/23 04:18:39;;;;;;;25.37;13.30;;;;;;;7.81;60.53;103715.53;5046185;28;20052;-72
2023/01/23 04:21:05;;;;;;;28.30;13.00;;;;;;;8.60;59.75;103707.03;5040492;28;20388;-72
2023/01/23 04:23:30;;;;;;;28.30;12.27;;;;;;;8.49;59.28;103698.72;5039967;28;20028;-72
2023/01/23 04:25:56;;;;;;;26.47;13.03;;;;;;;8.06;61.99;103698.47;5066140;28;20037;-72
2023/01/23 04:28:21;;;;;;;22.33;12.13;;;;;;;8.74;58.61;103705.03;5042772;28;20020;-72
2023/01/23 04:30:51;;;;;;;30.67;13.70;;;;;;;8.95;58.02;103699.81;5035792;28;20037;-72
2023/01/23 04:33:17;;;;;;;28.67;12.93;;;;;;;9.32;56.58;103708.31;5049979;28;20039;-73
2023/01/23 04:35:54;;;;;;;30.47;13.07;;;;;;;8.92;57.60;103712.75;5050988;28;20048;-72
2023/01/23 04:38:24;;;;;;;29.53;13.10;;;;;;;8.96;57.51;103712.03;5051707;28;20029;-72
2023/01/23 04:40:50;;;;;;;28.57;13.27;;;;;;;8.46;59.51;103706.41;5053364;28;20241;-72
2023/01/23 04:43:15;;;;;;;31.23;13.43;;;;;;;8.76;57.73;103712.91;5059124;28;20393;-72
2023/01/23 04:45:42;;;;;;;30.60;14.07;;;;;;;8.95;56.91;103707.66;5041691;28;20123;-72
2023/01/23 04:48:08;;;;;;;31.97;13.70;;;;;;;9.14;57.72;103703.22;5051864;28;20112;-72
2023/01/23 04:50:33;;;;;;;27.37;13.57;;;;;;;9.50;56.00;103716.88;5050145;28;20104;-72
2023/01/23 04:52:59;;;;;;;28.60;12.73;;;;;;;9.71;54.81;103712.47;5051067;28;20476;-72
2023/01/23 04:55:24;;;;;;;34.80;14.17;;;;;;;9.23;57.06;103720.97;5052101;28;20083;-72
2023/01/23 04:57:50;;;;;;;30.90;13.07;;;;;;;9.57;55.92;103723.25;5052091;28;20052;-72
2023/01/23 05:00:16;;;;;;;33.90;14.10;;;;;;;9.37;55.12;103724.16;5051569;28;20470;-72
2023/01/23 05:02:44;;;;;;;30.03;13.13;;;;;;;9.07;55.96;103735.13;5041433;28;20124;-72
2023/01/23 05:05:11;;;;;;;25.67;13.10;;;;;;;9.03;58.14;103733.19;5050805;28;20111;-72
2023/01/23 05:07:36;;;;;;;29.83;12.93;;;;;;;8.93;56.90;103738.00;5051346;28;20072;-72
2023/01/23 05:10:02;;;;;;;36.57;13.47;;;;;;;9.59;54.88;103742.50;5050856;28;20083;-73
2023/01/23 05:12:28;;;;;;;36.27;13.37;;;;;;;9.59;54.74;103745.09;5049532;28;20029;-72
2023/01/23 05:14:53;;;;;;;32.37;13.87;;;;;;;10.09;54.31;103744.41;5051107;28;20029;-72
2023/01/23 05:17:18;;;;;;;31.10;12.40;;;;;;;9.50;55.86;103742.97;5050363;28;20052;-72
2023/01/23 05:19:44;;;;;;;33.23;17.27;;;;;;;9.69;54.46;103743.75;5051266;28;20508;-72
2023/01/23 05:22:09;;;;;;;29.00;14.27;;;;;;;9.67;53.88;103746.31;5050089;28;20481;-73
2023/01/23 05:24:35;;;;;;;28.60;13.90;;;;;;;9.21;56.21;103739.19;5081784;28;20361;-72
2023/01/23 05:27:00;;;;;;;30.10;13.43;;;;;;;9.63;56.17;103739.16;5050063;28;20028;-72
2023/01/23 05:29:25;;;;;;;33.63;12.43;;;;;;;9.29;56.35;103734.28;5051623;28;20032;-72
2023/01/23 05:31:51;;;;;;;25.00;13.27;;;;;;;9.71;54.79;103723.78;5050116;28;20040;-72
2023/01/23 05:34:16;;;;;;;38.60;14.60;;;;;;;9.46;56.00;103727.16;5036835;28;20033;-72
2023/01/23 05:36:42;;;;;;;36.83;14.07;;;;;;;9.68;55.41;103726.28;5032086;28;20032;-72
2023/01/23 05:39:07;;;;;;;32.10;13.27;;;;;;;9.09;56.95;103726.50;5044428;28;20025;-72
2023/01/23 05:41:32;;;;;;;28.23;13.37;;;;;;;8.65;57.88;103730.69;5043432;28;20033;-72
2023/01/23 05:43:58;;;;;;;25.00;12.40;;;;;;;9.51;55.87;103733.44;5041894;28;20463;-72
2023/01/23 05:46:23;;;;;;;26.00;13.07;;;;;;;8.85;57.62;103734.19;5049809;28;20029;-72
2023/01/23 05:48:50;;;;;;;36.87;14.47;;;;;;;8.89;58.20;103732.56;5052451;28;20053;-72
2023/01/23 05:51:16;;;;;;;30.17;13.20;;;;;;;9.48;56.30;103738.56;5049915;28;20024;-72
2023/01/23 05:53:41;;;;;;;25.80;13.63;;;;;;;9.04;57.85;103742.78;5042649;28;20111;-72
2023/01/23 05:56:08;;;;;;;30.63;12.97;;;;;;;9.27;56.44;103754.19;5036104;28;20663;-72
2023/01/23 05:58:33;;;;;;;32.23;13.80;;;;;;;9.20;57.19;103753.06;5050883;28;20032;-72
2023/01/23 06:01:02;;;;;;;29.93;13.90;;;;;;;8.70;58.45;103754.38;5051307;28;20365;-72
2023/01/23 06:03:27;;;;;;;30.90;13.83;;;;;;;9.16;56.63;103756.34;5049810;28;20520;-72
2023/01/23 06:05:53;;;;;;;31.33;13.80;;;;;;;9.45;55.62;103754.06;5051706;28;20136;-72
2023/01/23 06:08:18;;;;;;;25.37;13.90;;;;;;;9.81;55.06;103759.03;5071303;28;20526;-72
2023/01/23 06:10:44;;;;;;;29.93;13.80;;;;;;;8.68;59.01;103761.22;5052563;28;20040;-72
2023/01/23 06:13:09;;;;;;;28.43;15.07;;;;;;;8.83;58.13;103756.69;5032198;28;20029;-73
2023/01/23 06:15:35;;;;;;;30.40;14.83;;;;;;;9.92;54.54;103752.50;5031209;28;20034;-72
2023/01/23 06:18:01;;;;;;;26.63;13.83;;;;;;;9.47;55.71;103752.44;5030435;28;20463;-72
2023/01/23 06:20:26;;;;;;;28.27;14.20;;;;;;;9.36;55.54;103756.31;5029261;28;20117;-72
2023/01/23 06:22:52;;;;;;;31.77;14.70;;;;;;;9.10;57.38;103750.91;5034073;28;20037;-72
2023/01/23 06:25:19;;;;;;;36.47;14.43;;;;;;;8.91;58.06;103755.31;5042434;28;20397;-72
2023/01/23 06:27:45;;;;;;;29.43;14.53;;;;;;;9.27;56.73;103759.41;5029329;28;20026;-73
2023/01/23 06:30:11;;;;;;;33.47;15.73;;;;;;;8.82;59.46;103761.03;5030028;28;20091;-73
2023/01/23 06:32:37;;;;;;;29.73;12.93;;;;;;;8.90;57.67;103763.97;5030480;28;20037;-73
2023/01/23 06:35:02;;;;;;;30.63;14.33;;;;;;;9.08;57.15;103753.44;5028718;28;20036;-73
2023/01/23 06:37:28;;;;;;;29.50;13.57;;;;;;;9.17;55.67;103761.63;5033658;28;20025;-72
2023/01/23 06:39:53;;;;;;;29.47;13.80;;;;;;;8.65;59.43;103762.91;5049758;28;20513;-73
2023/01/23 06:42:18;;;;;;;36.40;14.77;;;;;;;9.26;56.78;103748.09;5048675;28;20130;-73
2023/01/23 06:44:44;;;;;;;36.60;14.33;;;;;;;9.30;56.33;103746.50;5036349;28;20022;-73
2023/01/23 06:47:09;;;;;;;31.27;15.83;;;;;;;8.38;59.49;103756.38;5034506;28;20509;-73
2023/01/23 06:49:35;;;;;;;35.07;14.80;;;;;;;8.70;60.05;103754.38;5048521;28;20033;-73
2023/01/23 06:52:00;;;;;;;30.53;14.93;;;;;;;8.41;59.24;103752.19;5049791;28;20044;-73
2023/01/23 06:54:26;;;;;;;27.13;14.57;;;;;;;7.88;62.38;103754.06;5034978;28;20064;-73
2023/01/23 06:56:51;;;;;;;36.40;17.40;;;;;;;8.78;60.27;103750.41;5030016;28;20033;-73
2023/01/23 06:59:17;;;;;;;36.40;16.67;;;;;;;8.90;60.76;103758.75;5048930;28;20033;-72
2023/01/23 07:01:43;;;;;;;31.87;15.57;;;;;;;8.45;60.19;103768.91;5046685;28;20044;-73
2023/01/23 07:04:08;;;;;;;33.70;16.20;;;;;;;8.22;62.38;103762.63;5047870;28;20064;-73
2023/01/23 07:06:35;;;;;;;33.60;15.13;;;;;;;8.44;59.56;103756.66;5048496;28;20073;-73
2023/01/23 07:09:00;;;;;;;34.97;14.63;;;;;;;8.23;61.89;103767.88;5047643;28;20148;-72
2023/01/23 07:11:26;;;;;;;37.13;15.10;;;;;;;9.06;59.62;103765.50;5048921;28;20112;-73
2023/01/23 07:13:52;;;;;;;35.00;15.80;;;;;;;9.05;58.66;103773.28;5040492;28;20158;-73
2023/01/23 07:16:18;;;;;;;33.90;16.27;;;;;;;9.09;58.36;103780.41;5048057;28;20025;-72
2023/01/23 07:18:44;;;;;;;34.13;16.10;;;;;;;9.16;58.13;103766.78;5050496;28;20025;-73
2023/01/23 07:21:10;;;;;;;32.00;15.93;;;;;;;9.49;56.24;103771.66;5039687;28;20037;-72
2023/01/23 07:23:38;;;;;;;37.70;15.63;;;;;;;9.61;56.55;103772.16;5038896;28;20388;-74
2023/01/23 07:26:08;;;;;;;33.60;15.87;;;;;;;9.75;55.06;103785.78;5048926;28;20025;-73
2023/01/23 07:28:38;;;;;;;38.60;15.70;;;;;;;9.02;56.89;103787.06;5049077;28;20067;-72
2023/01/23 07:31:04;;;;;;;36.33;16.10;;;;;;;9.13;57.82;103788.44;5042798;28;20036;-72
2023/01/23 07:33:29;;;;;;;40.67;17.70;;;;;;;9.99;55.44;103788.47;5078577;28;20036;-73
2023/01/23 07:35:55;;;;;;;27.63;14.30;;;;;;;10.14;54.20;103792.56;5047671;28;20029;-73
2023/01/23 07:38:22;;;;;;;40.87;15.03;;;;;;;9.73;54.73;103791.78;5049536;28;20481;-73
2023/01/23 07:40:48;;;;;;;33.20;15.57;;;;;;;9.42;55.89;103800.94;5047997;28;20040;-73
2023/01/23 07:43:14;;;;;;;31.97;15.33;;;;;;;9.40;56.01;103797.41;5047090;28;20614;-73
2023/01/23 07:45:39;;;;;;;32.70;15.47;;;;;;;9.34;56.04;103795.38;5029584;28;20116;-73
2023/01/23 07:48:05;;;;;;;30.00;15.30;;;;;;;9.12;58.87;103801.41;5044360;28;20063;-72
2023/01/23 07:50:31;;;;;;;34.43;15.33;;;;;;;9.41;56.49;103804.38;5052592;28;20369;-73
2023/01/23 07:52:56;;;;;;;34.20;16.23;;;;;;;8.97;56.67;103810.38;5052656;28;20161;-73
2023/01/23 07:55:22;;;;;;;33.90;15.20;;;;;;;9.94;55.34;103808.31;5040222;28;20425;-73
2023/01/23 07:57:47;;;;;;;29.23;15.10;;;;;;;9.40;57.52;103808.72;5052567;28;20446;-73
2023/01/23 08:00:13;;;;;;;33.57;15.00;;;;;;;9.78;54.96;103814.66;5052194;28;20043;-73
2023/01/23 08:02:39;;;;;;;31.40;15.23;;;;;;;10.44;53.19;103815.47;5048120;28;20033;-73
2023/01/23 08:05:05;;;;;;;39.13;16.13;;;;;;;10.21;52.68;103815.47;5051770;28;20397;-73
2023/01/23 08:07:30;;;;;;;37.10;16.73;;;;;;;9.71;54.39;103816.94;5053492;28;20103;-74
2023/01/23 08:09:56;;;;;;;43.03;17.60;;;;;;;9.34;55.94;103824.09;5053302;28;20408;-74
2023/01/23 08:12:21;;;;;;;31.57;15.77;;;;;;;10.22;54.46;103830.34;5046825;28;20652;-74
2023/01/23 08:14:47;;;;;;;35.77;16.47;;;;;;;9.59;55.29;103830.38;5064526;28;20029;-74
2023/01/23 08:17:13;;;;;;;35.40;17.43;;;;;;;9.95;53.97;103835.34;5047083;28;20025;-73
2023/01/23 08:19:38;;;;;;;33.37;16.47;;;;;;;10.00;54.06;103839.00;5041483;28;20040;-74
2023/01/23 08:22:04;;;;;;;40.53;15.80;;;;;;;9.74;55.21;103835.34;5035625;28;20469;-73
2023/01/23 08:24:29;;;;;;;26.53;14.27;;;;;;;9.73;55.23;103825.75;5032762;28;20039;-73
2023/01/23 08:26:55;;;;;;;32.37;16.03;;;;;;;9.50;55.72;103836.09;5040341;28;20116;-73
2023/01/23 08:29:20;;;;;;;34.33;15.87;;;;;;;10.04;54.74;103842.66;5051118;28;20029;-73
2023/01/23 08:31:46;;;;;;;31.33;16.70;;;;;;;9.92;54.24;103843.94;5050289;28;20041;-73
2023/01/23 08:34:11;;;;;;;30.83;16.70;;;;;;;9.89;54.12;103841.22;5048754;28;20063;-75
2023/01/23 08:36:37;;;;;;;29.07;15.10;;;;;;;9.70;55.29;103843.88;5038883;28;20033;-73
2023/01/23 08:39:02;;;;;;;31.83;16.03;;;;;;;9.34;57.17;103856.34;5048398;28;20032;-73
2023/01/23 08:41:28;;;;;;;34.33;15.43;;;;;;;9.07;58.84;103861.25;5050444;28;20115;-73
2023/01/23 08:43:53;;;;;;;30.40;15.37;;;;;;;8.98;57.57;103873.88;5049909;28;20124;-73
2023/01/23 08:46:19;;;;;;;32.57;15.90;;;;;;;9.21;57.44;103860.97;5048422;28;20499;-73
2023/01/23 08:48:44;;;;;;;26.80;14.37;;;;;;;9.31;57.07;103861.44;5044304;28;20049;-73
2023/01/23 08:51:12;;;;;;;31.03;14.87;;;;;;;8.72;59.91;103860.53;5081290;28;20035;-73
2023/01/23 08:53:38;;;;;;;32.27;15.77;;;;;;;9.34;58.94;103856.34;5045428;28;20029;-73
2023/01/23 08:56:14;;;;;;;35.83;14.67;;;;;;;8.74;60.33;103871.06;5035672;28;20075;-72
2023/01/23 08:58:39;;;;;;;35.17;16.77;;;;;;;9.20;59.56;103862.66;5041654;28;20021;-73
2023/01/23 09:01:10;;;;;;;31.57;15.77;;;;;;;9.02;60.73;103862.75;5047611;28;20051;-73
2023/01/23 09:03:35;;;;;;;32.07;15.80;;;;;;;9.21;57.81;103854.03;5045047;28;20083;-73
2023/01/23 09:06:01;;;;;;;32.30;16.00;;;;;;;9.03;60.40;103859.31;5035308;28;20053;-73
2023/01/23 09:08:26;;;;;;;33.47;15.23;;;;;;;9.21;57.94;103859.25;5045910;28;20039;-73
2023/01/23 09:10:52;;;;;;;34.07;16.97;;;;;;;10.05;55.88;103861.00;5039838;28;20128;-73
2023/01/23 09:13:18;;;;;;;29.23;15.37;;;;;;;9.92;55.82;103857.00;5051930;28;20035;-73
2023/01/23 09:15:45;;;;;;;31.33;14.60;;;;;;;9.99;55.88;103859.03;5048390;28;20041;-73
2023/01/23 09:18:10;;;;;;;29.60;15.50;;;;;;;10.42;54.51;103864.25;5039036;28;20021;-73
2023/01/23 09:20:37;;;;;;;38.03;15.87;;;;;;;10.56;53.29;103865.66;5042726;28;20500;-73
2023/01/23 09:23:03;;;;;;;32.87;14.77;;;;;;;10.49;53.02;103871.47;5044538;28;20057;-73
2023/01/23 09:25:30;;;;;;;31.40;14.47;;;;;;;10.44;53.50;103873.03;5036653;28;20039;-72
2023/01/23 09:27:56;;;;;;;30.27;15.50;;;;;;;10.10;53.68;103871.66;5048222;28;20033;-73
2023/01/23 09:30:21;;;;;;;31.40;14.70;;;;;;;9.10;55.30;103870.94;5042067;28;20031;-73
2023/01/23 09:32:47;;;;;;;31.20;14.47;;;;;;;10.32;54.28;103876.91;5038808;28;20032;-73
2023/01/23 09:35:12;;;;;;;29.37;15.67;;;;;;;9.50;54.88;103878.78;5041214;28;20037;-74
2023/01/23 09:40:24;;;;;;;29.50;13.73;;;;;;;9.94;56.48;103878.84;5041974;28;20051;-73
2023/01/23 09:42:50;;;;;;;29.57;13.80;;;;;;;9.93;55.59;103884.94;5040671;28;20166;-73
2023/01/23 09:45:20;;;;;;;28.57;14.67;;;;;;;9.93;54.55;103879.72;5039964;28;20473;-73
2023/01/23 09:47:45;;;;;;;32.57;14.80;;;;;;;9.89;55.09;103885.66;5031492;28;20033;-72
2023/01/23 09:50:30;;;;;;;31.67;14.53;;;;;;;9.86;55.87;103890.72;5048401;28;20083;-74
2023/01/23 09:53:05;;;;;;;27.90;14.53;;;;;;;10.10;54.66;103889.97;5039461;28;20052;-74
2023/01/23 09:55:44;;;;;;;30.70;13.70;;;;;;;9.48;57.77;103892.63;5059418;28;20031;-73
2023/01/23 09:58:25;;;;;;;36.73;15.10;;;;;;;10.33;55.15;103890.88;5049113;28;20028;-73
2023/01/23 10:00:51;;;;;;;32.80;14.23;;;;;;;10.53;54.15;103891.69;5044768;28;20040;-73
2023/01/23 10:03:17;;;;;;;29.73;14.10;;;;;;;10.53;52.67;103887.34;5040348;28;20049;-73
2023/01/23 10:06:06;;;;;;;24.77;14.23;;;;;;;10.66;53.85;103896.56;5040586;28;20409;-73
2023/01/23 10:08:56;;;;;;;33.10;14.93;;;;;;;10.16;53.98;103895.44;5076044;28;20043;-73
2023/01/23 10:11:55;;;;;;;29.37;15.17;;;;;;;11.01;50.83;103898.72;5046116;28;20124;-73
2023/01/23 10:14:38;;;;;;;23.77;13.53;;;;;;;10.76;52.39;103899.56;5033462;28;20397;-72
2023/01/23 10:17:13;;;;;;;;;;;;;;;11.35;49.95;103890.38;5043688;28;20025;-73
2023/01/23 10:19:58;;;;;;;28.10;14.93;;;;;;;11.14;52.01;103893.13;5040803;28;19916;-73
2023/01/23 10:22:38;;;;;;;29.67;15.53;;;;;;;10.85;52.38;103886.78;5041050;28;20481;-72
2023/01/23 10:25:31;;;;;;;30.47;15.13;;;;;;;9.98;52.85;103878.16;5050553;28;20033;-72
2023/01/23 10:28:13;;;;;;;32.00;15.73;;;;;;;9.80;55.09;103872.19;5046597;28;20584;-72
2023/01/23 10:30:40;;;;;;;39.53;17.30;;;;;;;10.75;53.82;103879.44;5038981;28;20035;-73
2023/01/23 10:33:12;;;;;;;33.03;15.63;;;;;;;10.86;53.48;103873.75;5037135;28;20029;-73
2023/01/23 10:35:49;;;;;;;27.98;15.35;;;;;;;11.41;52.48;103862.63;5049705;28;20032;-74
2023/01/23 10:38:42;;;;;;;34.20;15.47;;;;;;;11.20;51.52;103866.25;5048488;28;20095;-72
2023/01/23 10:41:13;;;;;;;27.13;15.18;;;;;;;11.41;51.55;103862.63;5048846;28;20029;-72
2023/01/23 10:43:40;;;;;;;28.60;15.27;;;;;;;10.49;53.24;103874.09;5050878;28;20438;-73
2023/01/23 10:46:16;;;;;;;30.17;14.57;;;;;;;11.43;51.30;103866.16;5049466;28;20033;-72
2023/01/23 10:48:50;;;;;;;31.60;14.57;;;;;;;11.21;51.67;103865.44;5049322;28;21246;-73
2023/01/23 10:51:37;;;;;;;28.13;13.87;;;;;;;11.93;49.65;103863.50;5048158;28;20032;-72
2023/01/23 10:54:20;;;;;;;26.43;13.47;;;;;;;12.07;50.14;103856.09;5035658;28;20038;-73
2023/01/23 10:57:01;;;;;;;32.90;16.37;;;;;;;12.16;50.56;103866.88;5030840;28;20053;-73
2023/01/23 10:59:27;;;;;;;29.13;16.03;;;;;;;12.17;48.78;103868.66;5043937;28;20037;-72
2023/01/23 11:01:58;;;;;;;24.50;14.57;;;;;;;11.92;48.66;103873.06;5048224;28;20028;-72
2023/01/23 11:04:26;;;;;;;29.27;14.93;;;;;;;11.26;49.84;103868.22;5048954;28;20146;-72
2023/01/23 11:07:12;;;;;;;26.20;14.00;;;;;;;11.53;50.41;103868.28;5047719;28;20045;-73
2023/01/23 11:09:52;;;;;;;22.73;13.93;;;;;;;11.40;51.71;103879.16;5047003;28;20060;-72
2023/01/23 11:12:21;;;;;;;23.80;13.40;;;;;;;10.13;53.51;103883.13;5049490;28;20455;-72
2023/01/23 11:14:47;;;;;;;27.00;15.30;;;;;;;11.25;51.35;103872.56;5047897;28;20052;-73
2023/01/23 11:17:31;;;;;;;29.90;14.57;;;;;;;11.26;51.22;103874.31;5043655;28;20044;-72
2023/01/23 11:19:58;;;;;;;26.43;13.93;;;;;;;11.85;50.19;103865.84;5057538;28;20029;-73
2023/01/23 11:22:30;;;;;;;27.97;14.70;;;;;;;11.71;49.47;103863.66;5042705;28;20029;-73
2023/01/23 11:24:56;;;;;;;27.80;14.83;;;;;;;12.00;49.28;103865.50;5063626;28;20025;-73
2023/01/23 11:27:26;;;;;;;26.40;13.23;;;;;;;11.90;49.69;103861.66;5051013;28;20013;-73
2023/01/23 11:30:07;;;;;;;22.00;12.70;;;;;;;10.88;52.49;103875.56;5051177;28;20042;-72